Flight Track Log - Related Links

Times and Time Zones

All times are in EDT time to prevent confusion due to time zone crossing. See the SKW6528 flight status page for this flight to view local times or setup timezone preferences in your user account.

Time Position Orientation Groundspeed Altitude Reporting Facility
EDT Latitude Longitude Course Direction KTS MPH feet Rate Location/Type
Mon 09:05:42 AM 35.4189 -119.0372 129° Southeast 164 189 33,000  Level Los Angeles Center
Mon 09:06:42 AM 35.3767 -118.9825 133° Southeast 216 249 33,000 -13,537 Level Los Angeles Center
Mon 09:07:43 AM 35.3325 -118.9253 133° Southeast 226 260 5,700 -12,446 Descending Los Angeles Center
Mon 09:08:00 AM 35.1833 -118.7575 90° East  Level FlightAware Approximate
Mon 09:08:43 AM 35.2872 -118.8689 135° Southeast 232 267 7,900  Level Los Angeles Center
Mon 09:09:00 AM 35.0992 -118.6630 136° Southeast  Level FlightAware Approximate
Mon 09:09:44 AM 35.2425 -118.8133 135° Southeast 231 266 10,200  Level Los Angeles Center
Mon 09:10:00 AM 35.0153 -118.5646 129° Southeast  Level FlightAware Approximate
Mon 09:10:45 AM 35.1906 -118.7483 134° Southeast 262 302 10,600  Level Los Angeles Center
Mon 09:11:45 AM 35.1292 -118.6717 134° Southeast 310 357 12,600 1,884 Climbing Los Angeles Center
Mon 09:12:46 AM 35.0792 -118.5939 128° Southeast 299 344 14,400 1,180 Climbing Los Angeles Center
Mon 09:13:47 AM 35.1100 -118.4728 73° East 338 389 15,000 793 Climbing Los Angeles Center
Mon 09:14:47 AM 35.1467 -118.3544 69° East 369 425 16,000 1,140 Climbing Los Angeles Center
Mon 09:15:48 AM 35.1831 -118.2350 70° East 375 432 17,300 1,377 Climbing Los Angeles Center
Mon 09:16:49 AM 35.2206 -118.1150 69° East 376 433 18,800 1,426 Climbing Los Angeles Center
Mon 09:17:50 AM 35.2572 -117.9964 69° East 375 432 20,200 1,438 Climbing Los Angeles Center
Mon 09:18:50 AM 35.2944 -117.8756 69° East 376 433 21,700 1,438 Climbing Los Angeles Center
Mon 09:19:51 AM 35.3314 -117.7561 69° East 374 430 23,100 1,131 Climbing Los Angeles Center
Mon 09:20:52 AM 35.3658 -117.6361 71° East 372 428 24,000 689 Climbing Los Angeles Center
Mon 09:21:53 AM 35.4028 -117.5117 70° East 380 437 24,500 541 Climbing Los Angeles Center
Mon 09:22:54 AM 35.4419 -117.3825 70° East 395 455 25,100 541 Climbing Los Angeles Center
Mon 09:23:55 AM 35.4814 -117.2497 70° East 408 470 25,600 492 Climbing Los Angeles Center
Mon 09:24:56 AM 35.5206 -117.1161 70° East 412 474 26,100 493 Climbing Los Angeles Center
Mon 09:26:09 AM 35.5683 -116.9539 70° East 420 483 26,700 493 Climbing Los Angeles Center
Mon 09:27:10 AM 35.6086 -116.8178 70° East 423 487 27,200 492 Climbing Los Angeles Center
Mon 09:28:11 AM 35.6489 -116.6825 70° East 424 488 27,700 492 Climbing Los Angeles Center
Mon 09:29:12 AM 35.6881 -116.5461 70° East 423 487 28,200 492 Climbing Los Angeles Center
Mon 09:30:13 AM 35.7275 -116.4094 70° East 423 487 28,700 492 Climbing Los Angeles Center
Mon 09:31:14 AM 35.7661 -116.2767 70° East 415 478 29,200 541 Climbing Los Angeles Center
Mon 09:32:15 AM 35.8122 -116.1158 70° East 412 474 29,800 541 Climbing Los Angeles Center
Mon 09:33:16 AM 35.8503 -115.9828 71° East 411 473 30,300 488 Climbing Los Angeles Center
Mon 09:34:18 AM 35.8858 -115.8592 70° East 413 475 30,800 488 Climbing Los Angeles Center
Mon 09:35:19 AM 35.9222 -115.7267 71° East 410 472 31,300 541 Climbing Los Angeles Center
Mon 09:36:20 AM 35.9667 -115.5683 71° East 409 471 31,900 541 Climbing Los Angeles Center
Mon 09:37:21 AM 36.0028 -115.4397 71° East 402 463 32,400 439 Climbing Los Angeles Center
Mon 09:38:23 AM 36.0311 -115.3369 71° East 399 459 32,800 293 Climbing Los Angeles Center
Mon 09:39:24 AM 36.0806 -115.1833 68° East 404 465 33,000 98 Climbing Los Angeles Center
Mon 09:40:25 AM 36.1253 -115.0550 67° East 408 470 33,000  Level Los Angeles Center
Mon 09:41:27 AM 36.1717 -114.9250 66° East 414 476 33,000  Level Los Angeles Center
Mon 09:42:28 AM 36.2181 -114.7936 66° East 417 480 33,000  Level Los Angeles Center
Mon 09:43:30 AM 36.2733 -114.6317 67° East 424 488 33,000  Level Los Angeles Center
Mon 09:44:31 AM 36.3214 -114.4967 66° East 429 494 33,000  Level Los Angeles Center
Mon 09:45:32 AM 36.3683 -114.3578 67° East 435 501 33,000  Level Los Angeles Center
Mon 09:46:34 AM 36.4164 -114.2194 67° East 437 503 33,000  Level Los Angeles Center
Mon 09:47:35 AM 36.4647 -114.0806 67° East 438 504 33,000  Level Los Angeles Center
Mon 09:48:37 AM 36.5108 -113.9450 67° East 429 494 33,000  Level Los Angeles Center
Mon 09:49:38 AM 36.5542 -113.8167 67° East 426 490 33,000  Level Los Angeles Center
Mon 09:50:40 AM 36.6083 -113.6583 67° East 418 481 33,000  Level Los Angeles Center
Mon 09:51:42 AM 36.6522 -113.5267 67° East 415 478 33,000  Level Los Angeles Center
Mon 09:52:43 AM 36.6961 -113.3956 67° East 413 475 33,000  Level Los Angeles Center
Mon 09:53:45 AM 36.7408 -113.2642 67° East 414 476 33,000  Level Los Angeles Center
Mon 09:54:46 AM 36.7839 -113.1319 68° East 414 476 33,000  Level Los Angeles Center
Mon 09:55:48 AM 36.8289 -112.9997 67° East 415 478 33,000  Level Los Angeles Center
Mon 09:56:49 AM 36.8728 -112.8661 68° East 418 481 33,000  Level Los Angeles Center
Mon 09:57:51 AM 36.9250 -112.7064 68° East 418 481 33,000  Level Los Angeles Center
Mon 09:58:52 AM 36.9678 -112.5708 68° East 421 484 33,000  Level Los Angeles Center
Mon 09:59:54 AM 37.0117 -112.4378 68° East 417 480 33,000  Level Los Angeles Center
Mon 10:00:56 AM 37.0556 -112.3028 68° East 421 484 33,000  Level Los Angeles Center
Mon 10:02:10 AM 37.1078 -112.1411 68° East 421 484 33,000  Level Los Angeles Center
Mon 10:03:11 AM 37.1500 -112.0072 68° East 417 480 33,000  Level Los Angeles Center
Mon 10:04:13 AM 37.2014 -111.8453 68° East 418 481 33,000  Level Los Angeles Center
Mon 10:05:16 AM 37.2447 -111.7111 68° East 418 481 33,000  Level Denver Center
Mon 10:06:17 AM 37.2869 -111.5761 69° East 418 481 33,000  Level Denver Center
Mon 10:07:19 AM 37.3292 -111.4400 69° East 420 483 33,000  Level Denver Center
Mon 10:08:20 AM 37.3719 -111.3033 68° East 421 484 33,000  Level Denver Center
Mon 10:09:22 AM 37.4147 -111.1644 69° East 427 491 33,000  Level Denver Center
Mon 10:10:23 AM 37.4661 -110.9986 69° East 425 489 33,000  Level Denver Center
Mon 10:11:25 AM 37.5092 -110.8600 69° East 426 490 33,000  Level Denver Center
Mon 10:12:26 AM 37.5519 -110.7217 69° East 425 489 33,000  Level Denver Center
Mon 10:13:28 AM 37.5939 -110.5817 69° East 427 491 33,000  Level Denver Center
Mon 10:14:29 AM 37.6392 -110.4344 69° East 424 488 33,000  Level Denver Center
Mon 10:15:31 AM 37.6781 -110.3019 70° East 421 484 33,000  Level Denver Center
Mon 10:16:33 AM 37.7256 -110.1461 69° East 424 488 33,000  Level Denver Center
Mon 10:17:34 AM 37.7650 -110.0119 70° East 424 488 33,000  Level Denver Center
Mon 10:18:36 AM 37.8047 -109.8786 69° East 423 487 33,000  Level Denver Center
Mon 10:19:38 AM 37.8511 -109.7200 70° East 427 491 33,000  Level Denver Center
Mon 10:20:40 AM 37.8906 -109.5853 70° East 427 491 33,000  Level Denver Center
Mon 10:21:41 AM 37.9436 -109.4289 67° East 428 493 33,000  Level Denver Center
Mon 10:22:43 AM 37.9869 -109.3189 63° Northeast 434 499 33,000  Level Denver Center
Mon 10:23:57 AM 38.0558 -109.1422 64° Northeast 444 511 33,000  Level Denver Center
Mon 10:24:59 AM 38.1178 -108.9811 64° Northeast 450 518 33,000  Level Denver Center
Mon 10:26:01 AM 38.1806 -108.8178 64° Northeast 460 529 33,000  Level Denver Center
Mon 10:27:03 AM 38.2333 -108.6797 64° Northeast 457 526 33,000  Level Denver Center
Mon 10:28:05 AM 38.2956 -108.5186 64° Northeast 455 524 33,000  Level Denver Center
Mon 10:29:07 AM 38.3478 -108.3803 64° Northeast 455 524 33,000  Level Denver Center
Mon 10:30:08 AM 38.4081 -108.2217 64° Northeast 449 517 33,000  Level Denver Center
Mon 10:31:10 AM 38.4600 -108.0831 64° Northeast 452 520 33,000  Level Denver Center
Mon 10:32:12 AM 38.5206 -107.9225 64° Northeast 451 519 33,000  Level Denver Center
Mon 10:33:14 AM 38.5708 -107.7858 65° Northeast 447 514 33,000  Level Denver Center
Mon 10:34:16 AM 38.6306 -107.6244 65° Northeast 451 519 33,000  Level Denver Center
Mon 10:35:18 AM 38.6811 -107.4872 65° Northeast 447 514 33,000  Level Denver Center
Mon 10:36:20 AM 38.7397 -107.3272 65° Northeast 446 513 33,000  Level Denver Center
Mon 10:37:22 AM 38.7894 -107.1922 65° Northeast 441 507 33,000  Level Denver Center
Mon 10:38:24 AM 38.8253 -107.0933 65° Northeast 440 506 33,000 -484 Level Denver Center
Mon 10:39:26 AM 38.8975 -106.8958 65° Northeast 444 511 32,000 -960 Descending Denver Center
Mon 10:40:29 AM 38.9556 -106.7333 65° Northeast 451 519 31,000 -864 Descending Denver Center
Mon 10:41:31 AM 39.0061 -106.5919 65° Northeast 455 524 30,200 -823 Descending Denver Center
Mon 10:42:33 AM 39.0575 -106.4503 65° Northeast 456 525 29,300 -1,113 Descending Denver Center
Mon 10:43:35 AM 39.1164 -106.2806 66° East 464 534 27,900 -1,210 Descending Denver Center
Mon 10:44:37 AM 39.1728 -106.1186 66° East 468 539 26,800 -1,113 Descending Denver Center
Mon 10:45:39 AM 39.2261 -105.9661 66° East 463 533 25,600 -1,113 Descending Denver Center
Mon 10:46:41 AM 39.2756 -105.8239 66° East 438 504 24,500 -1,065 Descending Denver Center
Mon 10:47:43 AM 39.3183 -105.7006 66° East 382 440 23,400 -1,065 Descending Denver Center
Mon 10:48:45 AM 39.3614 -105.5756 66° East 378 435 22,300 -1,113 Descending Denver Center
Mon 10:49:47 AM 39.4108 -105.4514 63° Northeast 370 426 21,100 -1,452 Descending Denver Center
Mon 10:50:49 AM 39.4689 -105.3419 55° Northeast 344 396 19,300 -1,790 Descending Denver Center
Mon 10:51:51 AM 39.5200 -105.2433 56° Northeast 330 380 17,400 -1,452 Descending Denver Center
Mon 10:52:53 AM 39.5714 -105.1467 55° Northeast 300 345 16,300 -1,113 Descending Denver Center
Mon 10:53:55 AM 39.6222 -105.0483 56° Northeast 330 380 15,100 -1,161 Descending Denver Center
Mon 10:54:57 AM 39.6769 -104.9431 56° Northeast 327 376 13,900 -1,016 Descending Denver Center
Mon 10:55:59 AM 39.7244 -104.8444 58° Northeast 327 376 13,000 -581 Descending Denver Center
Mon 10:57:01 AM 39.7372 -104.7353 81° East 306 352 12,700 -823 Descending Denver Center
Mon 10:58:03 AM 39.7511 -104.6300 80° East 276 318 11,300 -750 Descending Denver Center
Mon 10:59:17 AM 39.7611 -104.5378 82° East 258 297 11,000 -574 Descending Denver Center
Mon 11:00:19 AM 39.7719 -104.4139 83° East 265 305 10,000 -1,065 Descending Denver Center
Mon 11:01:21 AM 39.8003 -104.3369 64° Northeast 254 292 8,800 -1,210 Descending Denver Center
Mon 11:02:23 AM 39.8567 -104.3811 329° Northwest 243 280 7,500 -1,258 Descending Denver Center

Login

Don't have an account? Register now (free) for customized features, flight alerts, and more!